createdAt,value
2022-08-08T00:01:06.807Z,19.90
2022-08-08T00:03:47.531Z,19.90
2022-08-08T00:06:34.108Z,19.80
2022-08-08T00:09:07.934Z,19.80
2022-08-08T00:12:04.080Z,19.90
2022-08-08T00:14:59.291Z,19.90
2022-08-08T00:17:23.221Z,20.00
2022-08-08T00:19:54.505Z,19.90
2022-08-08T00:22:25.667Z,19.90
2022-08-08T00:25:00.567Z,19.80
2022-08-08T00:27:32.832Z,19.80
2022-08-08T00:30:04.697Z,19.70
2022-08-08T00:32:37.706Z,19.60
2022-08-08T00:35:27.632Z,19.60
2022-08-08T00:38:31.983Z,19.50
2022-08-08T00:41:45.089Z,19.60
2022-08-08T00:44:44.097Z,19.70
2022-08-08T00:48:05.233Z,19.50
2022-08-08T00:50:53.270Z,19.40
2022-08-08T00:53:33.573Z,19.40
2022-08-08T00:57:04.269Z,19.50
2022-08-08T01:00:06.625Z,19.50
2022-08-08T01:04:00.714Z,19.50
2022-08-08T01:07:07.418Z,19.30
2022-08-08T01:10:06.281Z,19.20
2022-08-08T01:12:49.431Z,19.20
2022-08-08T01:15:47.148Z,19.10
2022-08-08T01:18:53.686Z,19.10
2022-08-08T01:22:07.210Z,19.00
2022-08-08T01:24:58.681Z,19.00
2022-08-08T01:27:49.441Z,18.90
2022-08-08T01:30:39.177Z,18.90
2022-08-08T01:33:42.793Z,18.80
2022-08-08T01:36:25.484Z,18.80
2022-08-08T01:39:20.091Z,18.70
2022-08-08T01:41:58.097Z,18.70
2022-08-08T01:44:53.334Z,18.60
2022-08-08T01:48:23.806Z,18.60
2022-08-08T01:50:40.245Z,18.70
2022-08-08T01:55:16.629Z,18.70
2022-08-08T01:56:28.358Z,18.60
2022-08-08T01:59:11.734Z,18.60
2022-08-08T02:02:07.372Z,18.60
2022-08-08T02:04:58.670Z,18.50
2022-08-08T02:07:41.496Z,18.50
2022-08-08T02:10:30.247Z,18.40
2022-08-08T02:13:10.895Z,18.40
2022-08-08T02:16:12.238Z,18.30
2022-08-08T02:18:59.567Z,18.20
2022-08-08T02:21:53.822Z,18.20
2022-08-08T02:24:27.500Z,18.20
2022-08-08T02:27:00.987Z,18.20
2022-08-08T02:29:46.723Z,17.90
2022-08-08T02:32:58.171Z,18.00
2022-08-08T02:36:04.408Z,18.00
2022-08-08T02:38:44.805Z,17.90
2022-08-08T02:41:58.902Z,17.90
2022-08-08T02:44:57.181Z,17.90
2022-08-08T02:47:47.092Z,17.90
2022-08-08T02:50:59.044Z,17.80
2022-08-08T02:53:42.339Z,17.90
2022-08-08T02:56:40.188Z,18.10
2022-08-08T03:00:31.453Z,18.00
2022-08-08T03:06:08.568Z,18.00
2022-08-08T03:09:15.808Z,18.00
2022-08-08T03:12:36.851Z,18.10
2022-08-08T03:16:05.964Z,18.00
2022-08-08T03:18:44.743Z,17.90
2022-08-08T03:21:14.785Z,18.00
2022-08-08T03:23:59.791Z,17.90
2022-08-08T03:26:42.459Z,17.80
2022-08-08T03:29:20.592Z,17.70
2022-08-08T03:32:14.246Z,17.50
2022-08-08T03:34:41.684Z,17.30
2022-08-08T03:37:59.084Z,17.40
2022-08-08T03:40:18.337Z,17.40
2022-08-08T03:42:56.040Z,17.30
2022-08-08T03:46:04.775Z,17.30
2022-08-08T03:48:20.780Z,17.40
2022-08-08T03:51:07.300Z,17.30
2022-08-08T03:53:42.417Z,17.20
2022-08-08T03:56:32.155Z,17.20
2022-08-08T03:59:02.598Z,17.10
2022-08-08T04:02:02.439Z,17.10
2022-08-08T04:04:30.894Z,17.20
2022-08-08T04:07:01.144Z,17.20
2022-08-08T04:09:59.032Z,17.30
2022-08-08T04:12:23.834Z,17.40
2022-08-08T04:14:51.388Z,17.50
2022-08-08T04:17:40.838Z,17.50
2022-08-08T04:20:08.075Z,17.60
2022-08-08T04:22:37.022Z,17.70
2022-08-08T04:25:07.124Z,17.80
2022-08-08T04:28:02.600Z,17.80
2022-08-08T04:30:26.347Z,17.80
2022-08-08T04:32:54.382Z,17.80
2022-08-08T04:35:27.088Z,17.90
2022-08-08T04:37:57.281Z,17.90
2022-08-08T04:40:31.867Z,17.90
2022-08-08T04:43:05.534Z,18.00
2022-08-08T04:45:40.630Z,18.20
2022-08-08T04:48:11.014Z,18.20
2022-08-08T04:50:44.666Z,18.20
2022-08-08T04:54:27.469Z,18.10
2022-08-08T04:56:08.005Z,18.10
2022-08-08T04:58:38.179Z,18.10
2022-08-08T05:01:10.764Z,18.20
2022-08-08T05:04:07.762Z,18.30
2022-08-08T05:06:29.190Z,18.90
2022-08-08T05:09:03.044Z,20.10
2022-08-08T05:11:38.914Z,21.20
2022-08-08T05:14:12.338Z,22.30
2022-08-08T05:16:52.408Z,23.30
2022-08-08T05:20:11.096Z,24.30
2022-08-08T05:22:17.480Z,25.10
2022-08-08T05:24:48.234Z,25.80
2022-08-08T05:27:16.604Z,26.50
2022-08-08T05:29:51.851Z,27.30
2022-08-08T05:32:24.574Z,28.00
2022-08-08T05:34:58.488Z,28.90
2022-08-08T05:37:52.298Z,29.70
2022-08-08T05:40:27.683Z,30.40
2022-08-08T05:43:01.638Z,30.80
2022-08-08T05:45:41.613Z,30.40
2022-08-08T05:48:28.796Z,29.50
2022-08-08T05:51:13.591Z,28.70
2022-08-08T05:53:55.960Z,28.10
2022-08-08T05:57:04.643Z,27.30
2022-08-08T05:59:52.378Z,26.90
2022-08-08T06:02:48.161Z,26.80
2022-08-08T06:05:33.710Z,27.10
2022-08-08T06:08:10.129Z,27.70
2022-08-08T06:10:55.469Z,28.40
2022-08-08T06:13:26.995Z,29.10
2022-08-08T06:16:04.617Z,29.80
2022-08-08T06:18:54.394Z,30.60
2022-08-08T06:21:32.562Z,31.70
2022-08-08T06:24:04.941Z,31.80
2022-08-08T06:26:50.320Z,33.20
2022-08-08T06:29:59.347Z,34.60
2022-08-08T06:32:17.512Z,35.90
2022-08-08T06:35:12.326Z,37.00
2022-08-08T06:37:50.847Z,37.80
2022-08-08T06:40:26.737Z,37.50
2022-08-08T06:42:56.938Z,38.00
2022-08-08T06:45:34.069Z,38.90
2022-08-08T06:48:04.316Z,39.40
2022-08-08T06:50:38.856Z,39.60
2022-08-08T06:53:09.787Z,39.90
2022-08-08T06:55:47.246Z,40.40
2022-08-08T06:58:30.432Z,40.90
2022-08-08T07:01:02.063Z,41.20
2022-08-08T07:04:38.614Z,41.60
2022-08-08T07:06:43.904Z,41.80
2022-08-08T07:09:21.297Z,41.70
2022-08-08T07:11:52.114Z,41.40
2022-08-08T07:14:27.928Z,42.10
2022-08-08T07:17:08.904Z,42.10
2022-08-08T07:19:44.834Z,41.20
2022-08-08T07:22:22.465Z,40.10
2022-08-08T07:24:54.664Z,40.00
2022-08-08T07:27:35.188Z,40.40
2022-08-08T07:30:16.755Z,40.40
2022-08-08T07:32:52.210Z,40.70
2022-08-08T07:35:20.783Z,40.60
2022-08-08T07:38:04.830Z,42.10
2022-08-08T07:40:46.505Z,42.60
2022-08-08T07:43:17.026Z,43.20
2022-08-08T07:46:17.337Z,43.60
2022-08-08T07:48:53.837Z,42.60
2022-08-08T07:51:44.896Z,40.60
2022-08-08T07:54:26.674Z,40.30
2022-08-08T07:57:10.523Z,38.70
2022-08-08T07:59:50.386Z,36.60
2022-08-08T08:02:36.322Z,35.80
2022-08-08T08:05:17.552Z,36.60
2022-08-08T08:07:53.175Z,36.10
2022-08-08T08:10:33.349Z,35.10
2022-08-08T08:13:25.779Z,35.70
2022-08-08T08:16:17.167Z,36.10
2022-08-08T08:18:51.869Z,36.10
2022-08-08T08:21:44.081Z,36.40
2022-08-08T08:24:18.633Z,36.60
2022-08-08T08:26:52.934Z,36.50
2022-08-08T08:29:28.032Z,36.80
2022-08-08T08:31:58.195Z,36.00
2022-08-08T08:34:32.300Z,35.00
2022-08-08T08:37:08.443Z,34.40
2022-08-08T08:40:00.253Z,33.80
2022-08-08T08:42:35.311Z,33.10
2022-08-08T08:45:20.666Z,31.90
2022-08-08T08:47:54.562Z,31.50
2022-08-08T08:50:33.029Z,31.10
2022-08-08T08:53:45.345Z,30.50
2022-08-08T08:56:05.447Z,30.60
2022-08-08T08:58:42.348Z,30.50
2022-08-08T09:01:16.099Z,30.00
2022-08-08T09:03:50.397Z,29.70
2022-08-08T09:06:28.654Z,30.00
2022-08-08T09:09:05.373Z,30.40
2022-08-08T09:11:47.688Z,30.80
2022-08-08T09:14:26.483Z,31.50
2022-08-08T09:16:58.054Z,32.30
2022-08-08T09:21:58.679Z,32.60
2022-08-08T09:22:25.985Z,32.60
2022-08-08T09:24:58.473Z,33.00
2022-08-08T09:27:42.055Z,33.70
2022-08-08T09:30:17.884Z,34.40
2022-08-08T09:33:54.476Z,35.10
2022-08-08T09:35:50.258Z,35.40
2022-08-08T09:38:35.321Z,34.20
2022-08-08T09:41:54.802Z,33.80
2022-08-08T09:44:33.746Z,32.70
2022-08-08T09:48:02.267Z,31.90
2022-08-08T09:49:55.200Z,32.60
2022-08-08T09:52:56.075Z,33.80
2022-08-08T09:55:17.568Z,35.10
2022-08-08T09:58:06.758Z,37.20
2022-08-08T10:00:53.386Z,37.10
2022-08-08T10:03:31.489Z,36.10
2022-08-08T10:05:59.714Z,35.00
2022-08-08T10:08:31.410Z,33.80
2022-08-08T10:10:59.557Z,33.70
2022-08-08T10:13:35.901Z,33.30
2022-08-08T10:16:06.042Z,32.80
2022-08-08T10:18:36.803Z,34.30
2022-08-08T10:21:08.322Z,36.60
2022-08-08T10:23:58.954Z,38.00
2022-08-08T10:26:52.383Z,39.10
2022-08-08T10:29:44.264Z,40.40
2022-08-08T10:32:39.069Z,39.40
2022-08-08T10:36:01.788Z,36.80
2022-08-08T10:38:02.603Z,34.80
2022-08-08T10:40:33.273Z,33.90
2022-08-08T10:43:02.249Z,33.20
2022-08-08T10:45:42.236Z,32.50
2022-08-08T10:48:31.460Z,32.40
2022-08-08T10:51:11.333Z,32.10
2022-08-08T10:53:56.386Z,33.80
2022-08-08T10:56:27.328Z,36.00
2022-08-08T10:59:00.034Z,37.10
2022-08-08T11:01:33.639Z,36.00
2022-08-08T11:04:04.484Z,35.40
2022-08-08T11:06:34.145Z,34.50
2022-08-08T11:09:03.650Z,34.70
2022-08-08T11:12:06.466Z,35.60
2022-08-08T11:14:31.008Z,36.00
2022-08-08T11:17:00.849Z,35.70
2022-08-08T11:19:30.015Z,35.50
2022-08-08T11:21:59.442Z,35.60
2022-08-08T11:24:29.067Z,35.80
2022-08-08T11:27:00.764Z,36.00
2022-08-08T11:29:50.993Z,36.60
2022-08-08T11:32:31.957Z,37.60
2022-08-08T11:35:23.343Z,38.80
2022-08-08T11:38:39.149Z,39.20
2022-08-08T11:40:42.702Z,39.90
2022-08-08T11:43:11.438Z,40.00
2022-08-08T11:46:06.923Z,39.30
2022-08-08T11:48:32.904Z,37.90
2022-08-08T11:51:01.407Z,36.50
2022-08-08T11:53:58.927Z,35.10
2022-08-08T11:56:34.682Z,34.90
2022-08-08T11:59:09.908Z,34.90
2022-08-08T12:01:41.279Z,35.30
2022-08-08T12:04:12.598Z,35.50
2022-08-08T12:06:40.744Z,35.40
2022-08-08T12:09:17.101Z,35.90
2022-08-08T12:11:49.502Z,36.60
2022-08-08T12:14:22.406Z,36.70
2022-08-08T12:16:53.252Z,37.10
2022-08-08T12:19:37.777Z,37.60
2022-08-08T12:22:20.566Z,38.50
2022-08-08T12:24:54.120Z,40.20
2022-08-08T12:27:45.099Z,40.40
2022-08-08T12:30:18.529Z,38.10
2022-08-08T12:32:53.522Z,35.30
2022-08-08T12:35:24.663Z,35.00
2022-08-08T12:38:06.624Z,35.10
2022-08-08T12:40:54.474Z,35.00
2022-08-08T12:43:32.761Z,35.80
2022-08-08T12:46:03.143Z,37.60
2022-08-08T12:48:38.417Z,37.60
2022-08-08T12:51:19.099Z,37.40
2022-08-08T12:53:58.936Z,36.50
2022-08-08T12:56:34.022Z,35.90
2022-08-08T12:59:01.923Z,34.80
2022-08-08T13:01:37.057Z,34.30
2022-08-08T13:04:19.009Z,33.90
2022-08-08T13:07:02.755Z,33.70
2022-08-08T13:09:43.140Z,34.20
2022-08-08T13:12:29.966Z,35.10
2022-08-08T13:15:00.640Z,36.70
2022-08-08T13:17:54.348Z,37.80
2022-08-08T13:20:20.038Z,38.80
2022-08-08T13:22:51.558Z,39.80
2022-08-08T13:25:27.060Z,40.70
2022-08-08T13:27:56.612Z,40.30
2022-08-08T13:30:28.505Z,39.70
2022-08-08T13:32:57.116Z,39.40
2022-08-08T13:35:38.187Z,39.30
2022-08-08T13:38:13.257Z,38.30
2022-08-08T13:40:44.635Z,37.50
2022-08-08T13:43:13.155Z,36.90
2022-08-08T13:45:41.035Z,36.80
2022-08-08T13:48:13.573Z,36.80
2022-08-08T13:50:49.097Z,36.70
2022-08-08T13:53:28.092Z,36.40
2022-08-08T13:56:01.163Z,36.10
2022-08-08T13:58:29.060Z,36.60
2022-08-08T14:00:57.052Z,37.30
2022-08-08T14:03:52.181Z,38.20
2022-08-08T14:06:32.047Z,38.20
2022-08-08T14:09:25.344Z,38.30
2022-08-08T14:11:51.214Z,37.30
2022-08-08T14:14:20.487Z,36.80
2022-08-08T14:16:52.914Z,35.30
2022-08-08T14:19:57.911Z,35.10
2022-08-08T14:22:29.802Z,35.00
2022-08-08T14:25:00.394Z,34.90
2022-08-08T14:27:29.374Z,35.10
2022-08-08T14:30:08.282Z,35.40
2022-08-08T14:32:47.515Z,35.60
2022-08-08T14:35:22.136Z,36.10
2022-08-08T14:37:59.816Z,36.10
2022-08-08T14:40:31.374Z,36.10
2022-08-08T14:43:31.337Z,35.70
2022-08-08T14:46:03.359Z,34.60
2022-08-08T14:48:41.792Z,33.30
2022-08-08T14:51:20.429Z,32.30
2022-08-08T14:53:55.597Z,31.20
2022-08-08T14:56:25.979Z,30.00
2022-08-08T14:58:54.485Z,29.50
2022-08-08T15:01:37.549Z,29.10
2022-08-08T15:04:10.666Z,28.40
2022-08-08T15:06:39.126Z,28.30
2022-08-08T15:09:09.634Z,28.20
2022-08-08T15:11:46.059Z,28.10
2022-08-08T15:14:15.025Z,27.60
2022-08-08T15:16:44.501Z,27.70
2022-08-08T15:19:11.864Z,27.50
2022-08-08T15:21:44.667Z,27.80
2022-08-08T15:24:14.499Z,28.20
2022-08-08T15:26:52.884Z,27.80
2022-08-08T15:29:22.508Z,28.00
2022-08-08T15:32:03.095Z,28.10
2022-08-08T15:34:39.400Z,28.20
2022-08-08T15:37:07.605Z,28.10
2022-08-08T15:39:38.318Z,28.00
2022-08-08T15:42:13.162Z,28.80
2022-08-08T15:44:48.883Z,28.90
2022-08-08T15:47:19.385Z,28.60
2022-08-08T15:49:47.474Z,29.30
2022-08-08T15:52:17.608Z,29.20
2022-08-08T15:54:51.390Z,28.50
2022-08-08T15:57:23.197Z,28.10
2022-08-08T16:00:06.876Z,27.90
2022-08-08T16:02:44.540Z,27.80
2022-08-08T16:05:18.849Z,27.30
2022-08-08T16:07:52.834Z,27.00
2022-08-08T16:13:11.973Z,26.70
2022-08-08T16:13:34.634Z,26.90
2022-08-08T16:16:09.409Z,27.10
2022-08-08T16:18:44.664Z,27.00
2022-08-08T16:21:54.065Z,27.20
2022-08-08T16:24:25.170Z,27.00
2022-08-08T16:26:53.485Z,27.00
2022-08-08T16:29:36.964Z,26.50
2022-08-08T16:32:11.210Z,26.40
2022-08-08T16:34:48.278Z,26.50
2022-08-08T16:37:16.256Z,26.40
2022-08-08T16:40:02.277Z,27.20
2022-08-08T16:42:30.887Z,27.10
2022-08-08T16:45:00.368Z,27.80
2022-08-08T16:47:41.753Z,27.50
2022-08-08T16:50:14.199Z,28.40
2022-08-08T16:55:23.809Z,29.40
2022-08-08T16:55:42.743Z,30.00
2022-08-08T16:58:20.514Z,30.30
2022-08-08T17:00:51.707Z,29.70
2022-08-08T17:03:25.448Z,30.20
2022-08-08T17:06:37.339Z,30.90
2022-08-08T17:08:57.692Z,31.10
2022-08-08T17:11:28.378Z,31.20
2022-08-08T17:14:17.960Z,30.70
2022-08-08T17:16:51.712Z,30.50
2022-08-08T17:19:25.608Z,30.00
2022-08-08T17:21:54.575Z,29.90
2022-08-08T17:24:27.785Z,29.50
2022-08-08T17:26:57.711Z,29.90
2022-08-08T17:29:56.716Z,29.50
2022-08-08T17:32:28.844Z,29.10
2022-08-08T17:35:52.903Z,27.40
2022-08-08T17:37:51.862Z,27.40
2022-08-08T17:42:35.524Z,26.90
2022-08-08T17:45:14.298Z,25.80
2022-08-08T17:47:50.989Z,25.80
2022-08-08T17:50:18.650Z,25.40
2022-08-08T17:52:47.702Z,25.60
2022-08-08T17:56:03.420Z,25.60
2022-08-08T17:58:03.807Z,25.80
2022-08-08T18:00:32.055Z,26.30
2022-08-08T18:03:09.104Z,26.10
2022-08-08T18:05:44.255Z,26.30
2022-08-08T18:08:37.864Z,26.20
2022-08-08T18:11:15.145Z,26.00
2022-08-08T18:13:45.767Z,26.00
2022-08-08T18:16:16.938Z,25.80
2022-08-08T18:18:52.622Z,25.60
2022-08-08T18:21:34.866Z,25.50
2022-08-08T18:24:17.567Z,25.60
2022-08-08T18:26:54.905Z,25.40
2022-08-08T18:29:29.671Z,25.30
2022-08-08T18:31:58.509Z,25.00
2022-08-08T18:34:27.578Z,24.80
2022-08-08T18:36:55.883Z,24.80
2022-08-08T18:39:27.730Z,25.10
2022-08-08T18:42:03.550Z,25.30
2022-08-08T18:44:35.818Z,25.20
2022-08-08T18:47:04.220Z,25.00
2022-08-08T18:49:54.803Z,25.30
2022-08-08T18:52:22.589Z,24.90
2022-08-08T18:54:59.338Z,25.20
2022-08-08T18:57:31.799Z,25.10
2022-08-08T19:00:15.878Z,25.00
2022-08-08T19:02:48.094Z,24.50
2022-08-08T19:05:23.166Z,23.80
2022-08-08T19:07:52.009Z,24.10
2022-08-08T19:10:20.093Z,24.30
2022-08-08T19:12:53.374Z,24.30
2022-08-08T19:15:25.974Z,23.80
2022-08-08T19:18:33.503Z,23.90
2022-08-08T19:20:47.025Z,23.80
2022-08-08T19:23:14.358Z,24.10
2022-08-08T19:26:28.479Z,23.90
2022-08-08T19:28:31.134Z,24.00
2022-08-08T19:31:03.927Z,23.90
2022-08-08T19:33:39.639Z,24.00
2022-08-08T19:36:27.344Z,24.10
2022-08-08T19:40:38.481Z,23.70
2022-08-08T19:43:11.613Z,23.80
2022-08-08T19:45:57.574Z,23.60
2022-08-08T19:48:29.487Z,23.70
2022-08-08T19:50:59.402Z,23.50
2022-08-08T19:53:53.372Z,23.40
2022-08-08T19:56:25.874Z,23.50
2022-08-08T19:59:08.074Z,23.60
2022-08-08T20:02:01.810Z,23.30
2022-08-08T20:04:23.551Z,23.40
2022-08-08T20:08:28.495Z,23.30
2022-08-08T20:10:23.377Z,23.50
2022-08-08T20:12:59.147Z,23.40
2022-08-08T20:15:59.957Z,23.60
2022-08-08T20:18:29.645Z,23.50
2022-08-08T20:21:04.992Z,23.50
2022-08-08T20:23:33.931Z,23.40
2022-08-08T20:26:01.084Z,23.40
2022-08-08T20:28:32.749Z,23.50
2022-08-08T20:31:00.410Z,23.40
2022-08-08T20:33:28.153Z,23.30
2022-08-08T20:36:17.219Z,23.20
2022-08-08T20:38:51.065Z,22.90
2022-08-08T20:41:18.838Z,23.10
2022-08-08T20:43:49.698Z,23.00
2022-08-08T20:46:21.061Z,23.10
2022-08-08T20:48:55.501Z,23.20
2022-08-08T20:51:32.618Z,22.90
2022-08-08T20:54:04.851Z,22.90
2022-08-08T20:57:04.316Z,22.80
2022-08-08T20:59:29.091Z,22.70
2022-08-08T21:02:07.403Z,22.60
2022-08-08T21:04:37.028Z,22.60
2022-08-08T21:07:08.547Z,22.50
2022-08-08T21:10:01.572Z,22.50
2022-08-08T21:12:33.130Z,22.20
2022-08-08T21:15:06.909Z,22.00
2022-08-08T21:17:35.703Z,22.20
2022-08-08T21:20:05.355Z,21.80
2022-08-08T21:22:33.145Z,21.40
2022-08-08T21:25:02.933Z,21.70
2022-08-08T21:30:04.636Z,21.80
2022-08-08T21:32:33.369Z,22.00
2022-08-08T21:36:16.838Z,22.10
2022-08-08T21:37:54.299Z,21.90
2022-08-08T21:40:31.190Z,21.60
2022-08-08T21:42:58.987Z,21.70
2022-08-08T21:47:59.156Z,21.50
2022-08-08T21:48:19.635Z,21.60
2022-08-08T21:50:50.298Z,21.10
2022-08-08T21:54:22.981Z,21.00
2022-08-08T21:58:07.523Z,21.00
2022-08-08T22:00:41.133Z,20.90
2022-08-08T22:03:08.451Z,20.80
2022-08-08T22:05:41.485Z,20.60
2022-08-08T22:08:08.989Z,20.70
2022-08-08T22:10:36.609Z,20.70
2022-08-08T22:13:17.081Z,20.70
2022-08-08T22:15:58.882Z,20.70
2022-08-08T22:18:29.925Z,21.00
2022-08-08T22:20:59.575Z,21.00
2022-08-08T22:23:38.735Z,20.90
2022-08-08T22:26:26.610Z,21.10
2022-08-08T22:29:14.023Z,21.10
2022-08-08T22:31:44.062Z,20.70
2022-08-08T22:34:27.199Z,20.90
2022-08-08T22:36:54.295Z,21.00
2022-08-08T22:39:21.414Z,21.30
2022-08-08T22:41:49.514Z,21.50
2022-08-08T22:44:18.100Z,21.60
2022-08-08T22:46:45.849Z,21.60
2022-08-08T22:49:17.939Z,21.50
2022-08-08T22:51:47.891Z,21.60
2022-08-08T22:54:31.734Z,21.60
2022-08-08T22:57:11.631Z,21.60
2022-08-08T22:59:59.069Z,21.50
2022-08-08T23:02:28.831Z,21.50
2022-08-08T23:04:56.347Z,21.60
2022-08-08T23:07:51.430Z,21.40
2022-08-08T23:10:13.527Z,21.30
2022-08-08T23:12:47.556Z,21.30
2022-08-08T23:16:42.076Z,21.20
2022-08-08T23:18:05.271Z,20.90
2022-08-08T23:20:32.416Z,21.00
2022-08-08T23:22:59.606Z,20.60
2022-08-08T23:25:26.922Z,20.60
2022-08-08T23:27:55.173Z,20.90
2022-08-08T23:30:27.990Z,20.80
2022-08-08T23:32:55.384Z,20.90
2022-08-08T23:35:22.838Z,20.90
2022-08-08T23:38:02.863Z,20.90
2022-08-08T23:40:30.967Z,20.90
2022-08-08T23:42:57.846Z,20.90
2022-08-08T23:49:01.448Z,20.90
2022-08-08T23:49:04.910Z,20.90
2022-08-08T23:51:00.552Z,20.90
2022-08-08T23:54:05.855Z,20.80
2022-08-08T23:56:31.780Z,20.90
2022-08-08T23:58:59.706Z,20.80
